Taylorsport, Kentucky
Current Conditions -  °F | °C
As of 10:52 AM on Sunday 21 Dec 2014 (Local Time) from KCVG Reporting Station
Broken Clouds Broken Clouds  
Wind Chill: 25°   Ceiling: 1300
Heat Index: 32°   Visibility: 7mi
Dew Point: 23°   Wind: 8mph
Humidity: 69%   Direction: 90°E
Pressure: 30.3"   Gusts: NA
Location:  39.0882°N, 84.7043°W
Report Text: KCVG 211552Z 09007KT 7SM BKN013 BKN150 00/M05 A3030 RMK AO2 SLP265 T00001050
Loading
Personal Weather Stations






























Interactive Weather Map New forecast layout! Learn more

10-Day Weather Forecast

Advertisements
Track Severe Weather on mobile